• Join FlightAware (Why Join?)
  • Login
  • US Flag 
03:34AM EST


 

Airport Tracker/Info


-or-


 

Live Flight TrackerFlight Track Log ✈ SKW6528 ✈ 26-Apr-2013 ✈ KBFL - KDEN

Flight Track Log - Related Links

Times and Time Zones

All times are in EDT time to prevent confusion due to time zone crossing. See the SKW6528 flight status page for this flight to view local times or setup timezone preferences in your user account.

Time Position Orientation Groundspeed Altitude Reporting Facility
EDT Latitude Longitude Course Direction KTS MPH feet Rate Location/Type
09:12AM 35.4869 -119.1206 132° Southeast 210 242 33,000  Level Los Angeles Center
09:13AM 35.4581 -119.1697 234° Southwest 235 270 4,100 -12,960 Descending Los Angeles Center
09:14AM 35.1833 -118.7503 90° East  Level FlightAware Approximate
09:14AM 35.3800 -119.1150 150° Southeast 275 316 6,700  Level Los Angeles Center
09:15AM 35.0935 -118.6563 136° Southeast  Level FlightAware Approximate
09:15AM 35.3303 -119.0417 130° Southeast 282 325 9,700  Level Los Angeles Center
09:16AM 35.0090 -118.5552 129° Southeast  Level FlightAware Approximate
09:16AM 35.2792 -118.9681 130° Southeast 282 325 11,100  Level Los Angeles Center
09:17AM 34.9282 -118.4506 129° Southeast  Level FlightAware Approximate
09:17AM 35.2214 -118.8847 130° Southeast 308 354 12,800  Level Los Angeles Center
09:18AM 34.8492 -118.3433 132° Southeast  Level FlightAware Approximate
09:19AM 35.1864 -118.7853 113° Southeast 327 376 14,500  Level Los Angeles Center
09:20AM 35.1769 -118.6667 96° East 349 402 15,800 1,380 Climbing Los Angeles Center
09:21AM 35.1631 -118.5472 98° East 356 410 17,400 1,440 Climbing Los Angeles Center
09:22AM 35.1514 -118.4211 96° East 361 415 18,800 1,260 Climbing Los Angeles Center
09:23AM 35.1403 -118.2969 96° East 368 423 20,000 1,200 Climbing Los Angeles Center
09:24AM 35.1269 -118.1708 97° East 374 430 21,300 1,080 Climbing Los Angeles Center
09:25AM 35.1153 -118.0419 96° East 382 440 22,200 840 Climbing Los Angeles Center
09:26AM 35.1022 -117.9103 97° East 390 449 23,100 900 Climbing Los Angeles Center
09:27AM 35.1211 -117.7833 80° East 389 448 24,100 960 Climbing Los Angeles Center
09:28AM 35.1672 -117.6614 65° Northeast 388 447 25,100 780 Climbing Los Angeles Center
09:29AM 35.2128 -117.5381 66° East 388 447 25,800 660 Climbing Los Angeles Center
09:30AM 35.2592 -117.4156 65° Northeast 390 449 26,500 540 Climbing Los Angeles Center
09:31AM 35.3044 -117.2936 66° East 392 451 27,000 540 Climbing Los Angeles Center
09:32AM 35.3503 -117.1703 65° Northeast 394 453 27,600 540 Climbing Los Angeles Center
09:33AM 35.3972 -117.0447 65° Northeast 400 460 28,100 480 Climbing Los Angeles Center
09:34AM 35.4444 -116.9178 65° Northeast 404 465 28,600 480 Climbing Los Angeles Center
09:35AM 35.4914 -116.7903 66° East 408 470 29,100 540 Climbing Los Angeles Center
09:36AM 35.5478 -116.6386 65° Northeast 409 471 29,800 540 Climbing Los Angeles Center
09:37AM 35.5922 -116.5106 67° East 407 468 30,300 540 Climbing Los Angeles Center
09:38AM 35.6403 -116.3850 65° Northeast 406 467 30,900 300 Climbing Los Angeles Center
09:39AM 35.6775 -116.2836 66° East 407 468 31,000  Climbing Los Angeles Center
09:40AM 35.7339 -116.1261 66° East 416 479 31,000  Level Los Angeles Center
09:41AM 35.7833 -115.9931 65° Northeast 425 489 31,000  Level Los Angeles Center
09:42AM 35.8325 -115.8606 65° Northeast 433 498 31,000 120 Level Los Angeles Center
09:43AM 35.8925 -115.6944 66° East 442 509 31,300 600 Climbing Los Angeles Center
09:44AM 35.9406 -115.5606 66° East 432 497 32,300 780 Climbing Los Angeles Center
09:45AM 35.9869 -115.4333 66° East 414 476 33,000 300 Climbing Los Angeles Center
09:46AM 36.0325 -115.3069 66° East 406 467 33,000  Level Los Angeles Center
09:47AM 36.0781 -115.1736 67° East 422 486 33,000  Level Los Angeles Center
09:48AM 36.1247 -115.0406 66° East 425 489 33,000  Level Los Angeles Center
09:49AM 36.1728 -114.9056 66° East 429 494 33,000  Level Los Angeles Center
09:50AM 36.2303 -114.7433 66° East 430 495 33,000  Level Los Angeles Center
09:51AM 36.2783 -114.6056 67° East 434 499 33,000  Level Los Angeles Center
09:52AM 36.3261 -114.4658 67° East 440 506 33,000  Level Los Angeles Center
09:53AM 36.3756 -114.3250 66° East 445 512 33,000  Level Los Angeles Center
09:54AM 36.4244 -114.1847 67° East 444 511 33,000  Level Los Angeles Center
09:55AM 36.4725 -114.0425 67° East 447 514 33,000  Level Los Angeles Center
09:56AM 36.5200 -113.9053 67° East 446 513 33,000  Level Los Angeles Center
09:57AM 36.5781 -113.7353 67° East 448 516 33,000  Level Los Angeles Center
09:58AM 36.6250 -113.5947 67° East 444 511 33,000  Level Los Angeles Center
09:59AM 36.6725 -113.4556 67° East 440 506 33,000  Level Los Angeles Center
10:00AM 36.7189 -113.3169 67° East 436 502 33,000  Level Los Angeles Center
10:01AM 36.7647 -113.1778 68° East 436 502 33,000  Level Los Angeles Center
10:02AM 36.8108 -113.0400 67° East 434 499 33,000  Level Los Angeles Center
10:03AM 36.8564 -112.9022 68° East 433 498 33,000  Level Los Angeles Center
10:04AM 36.9094 -112.7378 68° East 430 495 33,000  Level Los Angeles Center
10:05AM 36.9542 -112.6019 68° East 428 493 33,000  Level Los Angeles Center
10:07AM 36.9981 -112.4667 68° East 425 489 33,000  Level Los Angeles Center
10:08AM 37.0428 -112.3317 67° East 424 488 33,000  Level Los Angeles Center
10:09AM 37.0864 -112.1953 68° East 424 488 33,000  Level Los Angeles Center
10:09AM 37.1133 -112.1144 67° East 423 487 33,000  Level Denver Center
10:10AM 37.1306 -112.0592 69° East 424 488 33,000  Level Los Angeles Center
10:11AM 37.1828 -111.8947 68° East 426 490 33,000  Level Los Angeles Center
10:11AM 37.2008 -111.8400 67° East 427 491 33,000  Level Denver Center
10:12AM 37.2447 -111.7039 68° East 425 489 33,000  Level Denver Center
10:13AM 37.2872 -111.5656 69° East 427 491 33,000  Level Denver Center
10:14AM 37.3314 -111.4278 68° East 428 493 33,000  Level Denver Center
10:15AM 37.3742 -111.2869 69° East 432 497 33,000  Level Denver Center
10:16AM 37.4267 -111.1172 69° East 438 504 33,000  Level Denver Center
10:17AM 37.4711 -110.9739 69° East 441 507 33,000  Level Denver Center
10:18AM 37.5167 -110.8289 68° East 447 514 33,000  Level Denver Center
10:19AM 37.5606 -110.6839 69° East 446 513 33,000  Level Denver Center
10:20AM 37.6089 -110.5258 69° East 450 518 33,000  Level Denver Center
10:21AM 37.6517 -110.3847 69° East 451 519 33,000  Level Denver Center
10:22AM 37.7014 -110.2197 69° East 450 518 33,000  Level Denver Center
10:23AM 37.7425 -110.0800 70° East 443 510 33,000  Level Denver Center
10:24AM 37.7844 -109.9414 69° East 441 507 33,000  Level Denver Center
10:25AM 37.8319 -109.7792 70° East 440 506 33,000  Level Denver Center
10:26AM 37.8653 -109.6644 70° East 437 503 33,000  Level Denver Center
10:28AM 37.9194 -109.4822 69° East 433 498 33,000  Level Denver Center
10:29AM 37.9586 -109.3478 70° East 426 490 33,000  Level Denver Center
10:31AM 38.0428 -109.0564 70° East 423 487 33,000  Level Denver Center
10:32AM 38.0856 -108.9042 70° East 427 491 33,000  Level Denver Center
10:33AM 38.1239 -108.7692 70° East 425 489 33,000  Level Denver Center
10:34AM 38.1697 -108.6103 70° East 428 493 33,000  Level Denver Center
10:35AM 38.2075 -108.4728 71° East 431 496 33,000  Level Denver Center
10:36AM 38.2531 -108.3103 70° East 436 502 33,000  Level Denver Center
10:37AM 38.2919 -108.1728 70° East 434 499 33,000  Level Denver Center
10:38AM 38.3314 -108.0328 70° East 438 504 33,000  Level Denver Center
10:39AM 38.3769 -107.8675 71° East 441 507 33,000  Level Denver Center
10:40AM 38.4261 -107.7317 65° Northeast 442 509 33,000  Level Denver Center
10:41AM 38.4931 -107.5811 60° Northeast 440 506 33,000  Level Denver Center
10:42AM 38.5519 -107.4500 60° Northeast 444 511 33,000 -540 Level Denver Center
10:43AM 38.6197 -107.2969 60° Northeast 444 511 32,000 -1,020 Descending Denver Center
10:44AM 38.6769 -107.1647 61° Northeast 441 507 31,000 -1,020 Descending Denver Center
10:45AM 38.7344 -107.0308 61° Northeast 430 495 30,000 -1,020 Descending Denver Center
10:46AM 38.7925 -106.8992 60° Northeast 428 493 29,000 -1,020 Descending Denver Center
10:47AM 38.8492 -106.7694 61° Northeast 420 483 28,000 -1,020 Descending Denver Center
10:48AM 38.9128 -106.6203 61° Northeast 418 481 27,000 -540 Descending Denver Center
10:49AM 38.9747 -106.4761 61° Northeast 414 476 27,000  Level Denver Center
10:50AM 39.0283 -106.3525 61° Northeast 414 476 27,000  Level Denver Center
10:51AM 39.0861 -106.2169 61° Northeast 391 450 27,000  Level Denver Center
10:52AM 39.1333 -106.1064 61° Northeast 380 437 27,000 -120 Level Denver Center
10:53AM 39.1803 -105.9919 62° Northeast 362 417 26,800 -1,080 Descending Denver Center
10:54AM 39.2367 -105.8572 62° Northeast 362 417 24,800 -1,860 Descending Denver Center
10:55AM 39.2847 -105.7442 61° Northeast 357 411 23,000 -1,620 Descending Denver Center
10:56AM 39.3239 -105.6517 61° Northeast 350 403 21,500 -1,800 Descending Denver Center
10:57AM 39.3767 -105.5231 62° Northeast 347 399 19,400 -1,800 Descending Denver Center
10:58AM 39.3983 -105.3950 78° East 348 400 17,800 -1,320 Descending Denver Center
11:00AM 39.4036 -105.3069 86° East 326 375 16,700 -1,500 Descending Denver Center
11:01AM 39.4092 -105.1689 87° East 313 360 14,800 -1,500 Descending Denver Center
11:02AM 39.4144 -105.0508 87° East 305 351 13,300 -1,020 Descending Denver Center
11:03AM 39.4347 -104.9364 77° East 272 313 12,600 -900 Descending Denver Center
11:04AM 39.4850 -104.8644 48° Northeast 250 288 11,500 -1,080 Descending Denver Center
11:05AM 39.5358 -104.8106 39° Northeast 241 277 10,400 -900 Descending Denver Center
11:06AM 39.5900 -104.7744 27° Northeast 215 247 9,700 -780 Descending Denver Center
11:07AM 39.6436 -104.7394 27° Northeast 199 229 8,800 -840 Descending Denver Center
11:08AM 39.6925 -104.7044 29° Northeast 203 234 8,000 -780 Descending Denver Center